Terminal Aerodrome Forecast
Issued by NWS

Home | Current Version | Previous Version | Text Only | Print | Product List | Glossary On
Versions: 1 2 3 4 5 6 7 8 9 10 11
000
FTUS46 KLOX 181741
TAFBUR
TAF
KBUR 181741Z 1818/1918 00000KT P6SM SKC
     FM182100 17012KT P6SM SKC
     FM190200 14007KT P6SM SKC
     FM190500 VRB03KT P6SM VCSH OVC010
     FM191500 32008KT P6SM SCT020=

USA.gov is the U.S. government's official web portal to all federal, state and local government web resources and services.